Split, Croatia

9:50 AM CET on January 30, 2015 (GMT +0100)
Split | Change Station
CLOSE
Current Station
Personal Weather Station
Location: Split, DALMATIA
Elevation: 40 ft
Nearby Weather Stations

Elev 40 ft 43.51 °N, 16.43 °E | Updated 2 minutes ago

Mostly Cloudy
Mostly Cloudy
55.6 °F
Feels Like 55.6 °F
N
0.0
Wind Variable Wind from ESE
Gusts 0.0 mph

Today
High -- | Low -- °F
--% Chance of Precip.
Yesterday
High -- | Low -- °F
Precip. -- in
7:13 AM 5:02 PM
Waxing Gibbous, 81% visible
Pressure 29.00 in
Visibility 6.2 miles
Clouds Few 3300 ft
Mostly Cloudy 5000 ft
Dew Point 43 °F
Humidity 62%
Rainfall 0.31 in
Snow Depth Not available.
UV 1 out of 12
Pollen Not available.
Air Quality Not available.
Flu Activity Not available.
METAR LDSP 300830Z 16016KT 110V210 9999 FEW033 BKN050 13/08 Q0982 TEMPO 16015G25KT

More Conditions Fewer Conditions

Pressure 29.00 in
Visibility 6.2 miles
Clouds Few 3300 ft
Mostly Cloudy 5000 ft
Dew Point 43 °F
Humidity 62%
Rainfall 0.31 in
Snow Depth Not available.
UV 1 out of 12
Pollen Not available.
Air Quality Not available.
Flu Activity Not available.
METAR LDSP 300830Z 16016KT 110V210 9999 FEW033 BKN050 13/08 Q0982 TEMPO 16015G25KT

More Conditions Fewer Conditions

10-Day Weather Forecast

Almanac

Astronomy

Jan. 30, 2015 Rise Set
Actual Time
Civil Twilight
Nautical Twilight
Astronomical Twilight
Moon
Length of Visible Light
Length of Day
Tomorrow will be .
, % of the Moon is Illuminated

Today's Extremes

Country Highs Country Lows

Community

WunderPhotos

Upload Photos

1,791,730 photos uploaded!

WunderBlogs® & News

Nearby

Air Quality

  Air Quality AQ Index Pollutant
Not available.

Snow Depth

Station Depth Elevation

Earthquake Activity

City Distance Mag. Time & Date
Minimum magnitude displayed is 2.5.

Coastal Water Temperatures

Place Temperature

Nearby Weather Stations